Latest METARs, TAFs and NOTAMs for ETSI


---------------------------------------------------------------------------
	(OBSERVATIONS)
ETSI 031920Z AUTO 33011KT 9999 // ////// 11/05 Q1022 ///=
ETSI 031820Z AUTO 33011KT 9000 // ////// 11/05 Q1021 ///=
ETSI 031720Z AUTO 34013G23KT 9000 // ////// 12/05 Q1020 ///=
---------------------------------------------------------------------------
	(FC)
TAF ETSI 031315Z 0314/0323 28010KT 9999 NSW SCT050 BKN200
     TEMPO 0314/0323 32015G25KT 5000 SHRA FEW010 BKN015CB
     PROB30 0314/0319 33018G33KT 3000 TSRA FEW005 BKN010CB CANCEL
     1620=
---------------------------------------------------------------------------
	(TERMINAL AREA FORECAST)
ETSI 031315Z 0314/0323 28010KT    9999 NSW  SCT050 BKN200
    TEMPO  0314/0323 32015G25KT 5000 SHRA FEW010 BKN015CB
    PROB30 0314/0319 33018G33KT 3000 TSRA FEW005 BKN010CB
    CANCEL 1620=
---------------------------------------------------------------------------
	(NOTAMS)


ETSI M0466/16 AD ETSI: INGOLSTADT TACAN IGL CH51X OUT OF SERVICE.
    06 MAY 06:00 2016 UNTIL 06 MAY 15:00 2016. CREATED: 26 APR
    10:20 2016

ETSI P1505/16 AD ETSI: TACAN APCH RWY07R SUSPENDED. 04 MAR 07:59
    2016 UNTIL 03 JUN 11:00 2016. CREATED: 04 MAR 08:02 2016

ETSI P1506/16 AD ETSI: PAR RWY25L/07R OUT OF SERVICE. 04 MAR
    08:00 2016 UNTIL 03 JUN 11:00 2016. CREATED: 04 MAR 08:04
    2016

ETSI P1507/16 AD ETSI: PAR RWY25R/07L OUT OF SERVICE. 04 MAR
    08:01 2016 UNTIL 03 JUN 11:00 2016. CREATED: 04 MAR 08:05
    2016

ETSI P1508/16 AD ETSI: NO SRA POSSIBLE. 04 MAR 08:02 2016 UNTIL
    03 JUN 11:00 2016. CREATED: 04 MAR 08:06 2016

ETSI P1509/16 AD ETSI: LIMITED RADAR COVERAGE BELOW 5000FT MSL.
    DETAILED INFORMATION BY INGO RADAR. 04 MAR 08:02 2016 UNTIL
    03 JUN 11:00 2016. CREATED: 04 MAR 08:07 2016

ETSI P1765/16 AD ETSI: AD OPENING HOURS CHANGED TO: MON-THU 0700-1400
    FRI 0700-1100. 29 MAR 07:00 2016 UNTIL 01 JUL 11:00 2016.
    CREATED: 15 MAR 08:25 2016

ETSI P2093/16 AD ETSI: RWY25R CABLE NO.2 OUT OF SERVICE. 30 MAR
    13:40 2016 UNTIL 03 JUN 12:00 2016. CREATED: 30 MAR 13:40
    2016

ETSI P2094/16 AD ETSI: RWY25L CABLE NO.1 OUT OF SERVICE. 30 MAR
    13:40 2016 UNTIL 03 JUN 12:00 2016. CREATED: 30 MAR 13:42
    2016

ETSI P2758/16 AD ETSI: AERODROME CLOSED EXCEPT CIVIL AIR TRAFFIC
    WITH PPR. 04 MAY 07:00 2016 UNTIL 04 MAY 11:00 2016. CREATED:
    29 APR 07:33 2016

ETSI P2849/16 AD ETSI: AERODROME CLOSED EXCEPT CIVIL AIR TRAFFIC
    WITH PPR. 05 MAY 00:01 2016 UNTIL 09 MAY 07:00 2016. CREATED:
    03 MAY 11:40 2016

ETSI U0022/16 AD ETSI INGOLSTADT/MANCHING GEMIL FLIP VAD ARR/DEP-1
    CHART SUSPENDED. SEE MIL AIP SUP 02/16 FOR DETAILS. 31 MAR
    00:01 2016 UNTIL PERM. CREATED: 11 MAR 10:32 2016

ETSI U0023/16 AD ETSI INGOLSTADT/MANCHING GEMIL FLIP VAD JET
    AND EUROFIGHTER FLIP ARR/DEP JET RWY 07R/25L AND ARR/DEP
    JET RWY 07L/25R CHARTS SUSPENDED. SEE MIL AIP SUP 03/16 FOR
    DETAILS. 31 MAR 00:01 2016 UNTIL PERM. CREATED: 11 MAR 10:40
    2016

---------------------------------------------------------------------------